Bowling Green, SC

4:10 PM EDT on July 24, 2016 (GMT -0400)
Hwy 55 and 557 | | Change Station

Elev 771 ft 35.10 °N, 81.19 °W | Updated 14 minutes ago

Clear
Clear
104.7 °F
Feels Like 117 °F
N
2.7
Wind Variable Wind from SSW

Today
High -- | Low -- °F
--% Chance of Precip.
Yesterday
High -- | Low -- °F
Precip. -- in
Pressure 29.99 in
Visibility 10.0 miles
Clouds Clear
Heat Index 117 °F
Dew Point 72 °F
Humidity 36%
Rainfall 0.00 in
Snow Depth Not available.
6:28 AM 8:33 PM
Waning Gibbous, 73% visible
METAR KAKH 241954Z AUTO 14003KT 10SM CLR 36/19 A3001 RMK AO2 SLP154 T03560194 TSNO
Pressure 29.99 in
Visibility 10.0 miles
Clouds Clear
Heat Index 117 °F
Dew Point 72 °F
Humidity 36%
Rainfall 0.00 in
Snow Depth Not available.
6:28 AM 8:33 PM
Waning Gibbous, 73% visible
METAR KAKH 241954Z AUTO 14003KT 10SM CLR 36/19 A3001 RMK AO2 SLP154 T03560194 TSNO

10-Day Weather Forecast

Almanac

Astronomy

Jul. 24, 2016 Rise Set
Actual Time
Civil Twilight
Nautical Twilight
Astronomical Twilight
Moon
Length of Visible Light
Length of Day
Tomorrow will be .
, % of the Moon is Illuminated

Today's Extremes

State Highs State Lows

Community

WunderPhotos

Upload Photos

1,927,178 photos uploaded!

WunderBlog® & News

Nearby

Air Quality

  Air Quality AQ Index Pollutant
Not available.

Snow Depth

Station Depth Elevation

Earthquake Activity

City Distance Mag. Time & Date
Minimum magnitude displayed is 2.5.

Coastal Water Temperatures

Place Temperature

Stations

Nearby Weather Stations

Station Location Temp. Windchill Dew Point Humidity Wind Precip. Elev Updated Type
                   

Watches & Warnings

There are currently no watches in effect.